Terminal Aerodrome Forecast
Issued by NWS Lake Charles, LA

Home | Current Version | Previous Version | Text Only | Print | Product List | Glossary On
Versions: 1 2 3 4 5 6 7 8 9 10 11 12 13 14 15 16 17 18 19 20 21 22 23 24
000
FTUS44 KLCH 200759 AAA
TAFLCH
TAF AMD
KLCH 200759Z 2008/2106 15009KT P6SM OVC008
      TEMPO 2009/2013 SCT008 OVC040
     FM201500 15012G18KT P6SM BKN015
     FM201900 17017G23KT P6SM VCTS SCT025CB OVC035
     FM202300 16015G21KT P6SM VCSH OVC026=

USA.gov is the U.S. government's official web portal to all federal, state and local government web resources and services.